• Join FlightAware (Why Join?)
  • Login
  • US Flag 
02:46AM EDT


 

Airport Tracker/Info


-or-


 

Live Flight TrackerFlight Track Log ✈ CPT8773 ✈ 23-Jul-2013 ✈ KCPR - KCOD

Flight Track Log - Related Links

Times and Time Zones

All times are in EDT time to prevent confusion due to time zone crossing. See the CPT8773 flight status page for this flight to view local times or setup timezone preferences in your user account.

Time Position Orientation Groundspeed Altitude Reporting Facility
EDT Latitude Longitude Course Direction KTS MPH feet Rate Location/Type
09:11AM 42.9589 -106.5158 308° West 105 121 7,600  Level Salt Lake Center
09:12AM 42.9881 -106.5306 340° North 110 127 8,100 480 Climbing Salt Lake Center
09:13AM 43.0208 -106.5489 338° Northwest 119 137 8,600 480 Climbing Salt Lake Center
09:14AM 43.0658 -106.5744 337° Northwest 131 151 9,200 420 Climbing Denver Center
09:15AM 43.0790 -106.2710 36° Northeast  Level FlightAware Approximate
09:15AM 43.1017 -106.5950 337° Northwest 138 159 9,600  Level Denver Center
09:16AM 43.1029 -106.3008 308° West  Level FlightAware Approximate
09:16AM 43.1378 -106.6175 336° Northwest 143 165 10,100  Level Denver Center
09:17AM 43.1753 -106.6433 333° Northwest 140 161 10,600 480 Climbing Denver Center
09:18AM 43.2106 -106.6644 336° Northwest 144 166 11,200 540 Climbing Denver Center
09:19AM 43.2536 -106.6844 341° North 144 166 11,800 360 Climbing Denver Center
09:20AM 43.2911 -106.7031 340° North 148 170 12,000 60 Climbing Denver Center
09:21AM 43.3300 -106.7250 338° Northwest 154 177 12,000  Level Denver Center
09:22AM 43.3589 -106.7808 305° West 159 183 12,000  Level Denver Center
09:23AM 43.3819 -106.8256 305° West 153 176 12,000  Level Denver Center
09:24AM 43.4042 -106.8711 304° West 150 173 12,000  Level Denver Center
09:25AM 43.4292 -106.9183 306° West 151 174 12,000  Level Denver Center
09:26AM 43.4542 -106.9650 306° West 152 175 12,100  Climbing Denver Center
09:27AM 43.4778 -107.0094 306° West 146 168 12,100  Level Denver Center
09:28AM 43.5017 -107.0583 304° West 151 174 12,100  Level Denver Center
09:29AM 43.5222 -107.0961 307° West 153 176 12,100 -60 Level Denver Center
09:30AM 43.5508 -107.1544 304° West 153 176 12,000 -60 Descending Salt Lake Center
09:31AM 43.5758 -107.2033 305° West 155 178 12,000  Level Salt Lake Center
09:32AM 43.6014 -107.2517 306° West 155 178 12,000  Level Salt Lake Center
09:33AM 43.6267 -107.3011 305° West 156 180 12,000  Level Salt Lake Center
09:34AM 43.6522 -107.3486 307° West 155 178 12,000  Level Salt Lake Center
09:36AM 43.6878 -107.4147 307° West 154 177 12,100  Climbing Denver Center
09:37AM 43.7175 -107.4719 306° West 154 177 12,100  Level Denver Center
09:38AM 43.7428 -107.5192 307° West 153 176 12,100  Level Denver Center
09:39AM 43.7664 -107.5681 304° West 153 176 12,100  Level Denver Center
09:40AM 43.7906 -107.6161 305° West 153 176 12,100  Level Denver Center
09:41AM 43.8211 -107.6731 307° West 153 176 12,100  Level Denver Center
09:42AM 43.8461 -107.7203 306° West 153 176 12,100  Level Denver Center
09:43AM 43.8708 -107.7683 306° West 152 175 12,100  Level Denver Center